createdAt,value
2018-10-12T00:00:13.144Z,13.10
2018-10-12T00:02:42.028Z,13.00
2018-10-12T00:05:10.525Z,12.90
2018-10-12T00:07:38.496Z,12.90
2018-10-12T00:10:06.547Z,12.70
2018-10-12T00:12:34.273Z,12.70
2018-10-12T00:15:02.342Z,12.60
2018-10-12T00:17:37.493Z,12.50
2018-10-12T00:20:06.421Z,12.50
2018-10-12T00:22:34.365Z,12.40
2018-10-12T00:25:02.121Z,12.40
2018-10-12T00:27:29.826Z,12.40
2018-10-12T00:29:57.670Z,12.40
2018-10-12T00:32:25.346Z,12.50
2018-10-12T00:34:53.050Z,12.30
2018-10-12T00:37:20.717Z,12.20
2018-10-12T00:39:54.530Z,12.20
2018-10-12T00:42:22.228Z,12.20
2018-10-12T00:44:50.021Z,12.10
2018-10-12T00:47:27.648Z,12.10
2018-10-12T00:49:55.513Z,12.10
2018-10-12T00:52:23.164Z,12.00
2018-10-12T00:54:50.845Z,12.00
2018-10-12T00:57:21.349Z,12.10
2018-10-12T00:59:49.484Z,12.00
2018-10-12T01:02:17.217Z,12.00
2018-10-12T01:04:45.519Z,11.90
2018-10-12T01:07:13.501Z,11.90
2018-10-12T01:09:41.277Z,11.90
2018-10-12T01:15:08.269Z,12.10
2018-10-12T01:17:39.298Z,12.10
2018-10-12T01:20:07.654Z,12.10
2018-10-12T01:22:35.594Z,12.00
2018-10-12T01:25:04.202Z,11.90
2018-10-12T01:27:32.131Z,11.80
2018-10-12T01:29:59.946Z,11.90
2018-10-12T01:32:33.536Z,11.80
2018-10-12T01:35:01.281Z,11.70
2018-10-12T01:37:29.049Z,11.80
2018-10-12T01:39:56.858Z,11.70
2018-10-12T01:42:24.660Z,11.80
2018-10-12T01:44:52.344Z,11.70
2018-10-12T01:47:20.013Z,11.70
2018-10-12T01:49:47.768Z,11.70
2018-10-12T01:52:15.448Z,11.70
2018-10-12T01:54:43.156Z,11.70
2018-10-12T01:57:11.669Z,11.70
2018-10-12T01:59:39.344Z,11.60
2018-10-12T02:02:07.289Z,11.60
2018-10-12T02:04:34.934Z,11.50
2018-10-12T02:07:03.057Z,11.40
2018-10-12T02:09:30.738Z,11.40
2018-10-12T02:11:58.565Z,11.40
2018-10-12T02:14:26.808Z,11.30
2018-10-12T02:16:54.605Z,11.20
2018-10-12T02:19:22.341Z,11.30
2018-10-12T02:21:50.047Z,11.30
2018-10-12T02:24:17.682Z,11.20
2018-10-12T02:26:45.365Z,11.20
2018-10-12T02:29:13.165Z,11.20
2018-10-12T02:31:41.268Z,11.20
2018-10-12T02:34:08.932Z,11.20
2018-10-12T02:36:36.937Z,11.20
2018-10-12T02:39:08.389Z,11.00
2018-10-12T02:41:36.071Z,11.00
2018-10-12T02:44:03.745Z,10.90
2018-10-12T02:46:31.509Z,10.90
2018-10-12T02:48:59.209Z,10.80
2018-10-12T02:51:27.470Z,10.80
2018-10-12T02:53:55.165Z,10.80
2018-10-12T02:56:23.618Z,10.80
2018-10-12T02:58:51.773Z,10.80
2018-10-12T03:01:20.461Z,10.90
2018-10-12T03:03:48.413Z,10.90
2018-10-12T03:06:16.232Z,10.90
2018-10-12T03:08:44.085Z,10.90
2018-10-12T03:11:11.829Z,10.90
2018-10-12T03:13:39.941Z,10.80
2018-10-12T03:16:07.673Z,10.80
2018-10-12T03:18:35.419Z,10.80
2018-10-12T03:21:03.112Z,10.70
2018-10-12T03:23:30.826Z,10.70
2018-10-12T03:25:58.752Z,10.60
2018-10-12T03:28:29.993Z,10.50
2018-10-12T03:30:58.122Z,10.50
2018-10-12T03:33:26.393Z,10.40
2018-10-12T03:35:54.565Z,10.40
2018-10-12T03:38:22.312Z,10.30
2018-10-12T03:40:50.058Z,10.30
2018-10-12T03:43:17.829Z,10.20
2018-10-12T03:45:45.641Z,10.20
2018-10-12T03:48:13.416Z,10.20
2018-10-12T03:50:41.132Z,10.20
2018-10-12T03:53:09.445Z,10.20
2018-10-12T03:55:37.185Z,10.20
2018-10-12T03:58:04.959Z,10.10
2018-10-12T04:00:32.651Z,10.00
2018-10-12T04:03:00.419Z,10.00
2018-10-12T04:05:28.080Z,10.00
2018-10-12T04:07:55.796Z,10.10
2018-10-12T04:10:23.555Z,10.30
2018-10-12T04:12:51.321Z,10.30
2018-10-12T04:15:19.116Z,10.30
2018-10-12T04:17:46.857Z,10.20
2018-10-12T04:20:14.553Z,10.10
2018-10-12T04:22:42.295Z,10.00
2018-10-12T04:25:10.128Z,10.00
2018-10-12T04:27:37.828Z,10.10
2018-10-12T04:30:06.143Z,10.10
2018-10-12T04:32:33.912Z,10.10
2018-10-12T04:35:01.638Z,10.20
2018-10-12T04:37:29.278Z,10.00
2018-10-12T04:40:03.825Z,10.20
2018-10-12T04:42:31.621Z,10.10
2018-10-12T04:44:59.361Z,10.00
2018-10-12T04:47:29.489Z,10.10
2018-10-12T04:49:58.736Z,10.10
2018-10-12T04:52:28.714Z,10.00
2018-10-12T04:55:00.688Z,10.10
2018-10-12T04:57:28.477Z,10.00
2018-10-12T04:59:56.272Z,9.90
2018-10-12T05:02:24.445Z,9.90
2018-10-12T05:04:52.321Z,9.80
2018-10-12T05:07:20.318Z,10.00
2018-10-12T05:09:47.969Z,10.00
2018-10-12T05:12:15.701Z,10.00
2018-10-12T05:14:43.857Z,10.00
2018-10-12T05:17:12.506Z,10.00
2018-10-12T05:19:40.179Z,10.10
2018-10-12T05:22:08.076Z,10.10
2018-10-12T05:24:35.911Z,10.00
2018-10-12T05:27:04.064Z,10.00
2018-10-12T05:29:31.916Z,9.90
2018-10-12T05:31:59.827Z,9.90
2018-10-12T05:34:27.674Z,10.00
2018-10-12T05:36:55.379Z,9.90
2018-10-12T05:39:23.090Z,10.00
2018-10-12T05:41:50.958Z,9.90
2018-10-12T05:44:18.914Z,9.80
2018-10-12T05:46:46.944Z,9.70
2018-10-12T05:49:32.185Z,9.70
2018-10-12T05:52:01.317Z,9.70
2018-10-12T05:54:29.053Z,10.00
2018-10-12T05:56:56.849Z,9.70
2018-10-12T05:59:24.681Z,9.80
2018-10-12T06:01:52.697Z,9.60
2018-10-12T06:04:20.353Z,9.80
2018-10-12T06:06:48.157Z,10.00
2018-10-12T06:09:15.922Z,10.00
2018-10-12T06:11:43.933Z,10.30
2018-10-12T06:14:11.601Z,10.40
2018-10-12T06:16:39.345Z,10.50
2018-10-12T06:19:07.129Z,10.60
2018-10-12T06:21:34.888Z,10.70
2018-10-12T06:24:02.629Z,10.80
2018-10-12T06:26:30.286Z,10.80
2018-10-12T06:28:58.073Z,10.80
2018-10-12T06:31:25.789Z,10.90
2018-10-12T06:33:53.494Z,10.90
2018-10-12T06:36:21.219Z,11.00
2018-10-12T06:38:48.917Z,11.00
2018-10-12T06:41:16.637Z,11.00
2018-10-12T06:43:44.304Z,11.10
2018-10-12T06:46:12.073Z,11.20
2018-10-12T06:48:39.807Z,11.20
2018-10-12T06:51:08.029Z,11.20
2018-10-12T06:53:36.345Z,11.20
2018-10-12T06:56:04.042Z,11.20
2018-10-12T06:58:31.742Z,11.20
2018-10-12T07:00:59.481Z,11.30
2018-10-12T07:03:27.303Z,11.40
2018-10-12T07:05:55.101Z,11.40
2018-10-12T07:08:22.875Z,11.40
2018-10-12T07:10:50.625Z,11.60
2018-10-12T07:13:18.273Z,11.80
2018-10-12T07:15:46.005Z,11.80
2018-10-12T07:18:13.689Z,11.80
2018-10-12T07:20:41.417Z,11.90
2018-10-12T07:23:09.102Z,11.80
2018-10-12T07:25:36.796Z,11.90
2018-10-12T07:28:04.505Z,12.00
2018-10-12T07:30:32.214Z,12.00
2018-10-12T07:32:59.917Z,12.10
2018-10-12T07:35:27.570Z,12.20
2018-10-12T07:37:55.341Z,12.40
2018-10-12T07:40:23.061Z,12.50
2018-10-12T07:42:50.797Z,12.60
2018-10-12T07:45:18.515Z,12.90
2018-10-12T07:47:46.165Z,13.10
2018-10-12T07:50:13.881Z,13.30
2018-10-12T07:52:41.553Z,13.20
2018-10-12T07:55:09.245Z,13.30
2018-10-12T07:57:36.961Z,13.30
2018-10-12T08:00:05.698Z,13.30
2018-10-12T08:02:33.397Z,13.40
2018-10-12T08:05:01.045Z,13.50
2018-10-12T08:07:28.818Z,13.60
2018-10-12T08:09:56.529Z,13.70
2018-10-12T08:12:24.273Z,13.60
2018-10-12T08:14:52.005Z,13.60
2018-10-12T08:17:19.764Z,13.70
2018-10-12T08:19:47.889Z,13.70
2018-10-12T08:22:15.672Z,13.60
2018-10-12T08:24:43.477Z,13.70
2018-10-12T08:27:11.244Z,13.80
2018-10-12T08:29:38.874Z,13.90
2018-10-12T08:32:06.730Z,13.90
2018-10-12T08:34:34.612Z,14.00
2018-10-12T08:37:08.599Z,14.30
2018-10-12T08:39:36.549Z,14.20
2018-10-12T08:42:06.500Z,14.20
2018-10-12T08:44:34.603Z,14.40
2018-10-12T08:47:02.953Z,14.70
2018-10-12T08:49:31.265Z,15.00
2018-10-12T08:52:02.481Z,15.00
2018-10-12T08:54:31.415Z,15.00
2018-10-12T08:56:59.626Z,15.00
2018-10-12T08:59:30.071Z,15.00
2018-10-12T09:01:57.809Z,15.20
2018-10-12T09:04:25.606Z,15.40
2018-10-12T09:06:53.280Z,15.60
2018-10-12T09:09:20.937Z,15.50
2018-10-12T09:11:48.641Z,15.50
2018-10-12T09:14:16.342Z,15.40
2018-10-12T09:16:43.994Z,15.60
2018-10-12T09:19:11.702Z,15.70
2018-10-12T09:21:39.422Z,15.80
2018-10-12T09:24:07.220Z,15.90
2018-10-12T09:26:34.929Z,16.20
2018-10-12T09:29:02.645Z,16.40
2018-10-12T09:31:30.406Z,16.60
2018-10-12T09:33:58.152Z,16.80
2018-10-12T09:36:25.963Z,17.00
2018-10-12T09:38:53.639Z,17.00
2018-10-12T09:41:21.433Z,17.00
2018-10-12T09:43:49.119Z,17.10
2018-10-12T09:46:16.845Z,17.10
2018-10-12T09:48:44.645Z,17.10
2018-10-12T09:51:12.317Z,17.20
2018-10-12T09:53:40.013Z,17.50
2018-10-12T09:56:07.845Z,17.60
2018-10-12T09:58:35.620Z,17.70
2018-10-12T10:01:09.147Z,17.80
2018-10-12T10:03:42.509Z,18.20
2018-10-12T10:06:10.209Z,18.20
2018-10-12T10:08:37.962Z,18.20
2018-10-12T10:11:05.697Z,18.50
2018-10-12T10:13:33.434Z,18.80
2018-10-12T10:16:04.720Z,19.00
2018-10-12T10:18:32.486Z,19.30
2018-10-12T10:21:00.205Z,19.50
2018-10-12T10:23:27.905Z,19.70
2018-10-12T10:25:55.629Z,19.80
2018-10-12T10:28:23.320Z,19.70
2018-10-12T10:30:50.968Z,19.90
2018-10-12T10:33:18.725Z,20.20
2018-10-12T10:35:46.436Z,21.10
2018-10-12T10:38:14.172Z,21.50
2018-10-12T10:40:41.899Z,21.80
2018-10-12T10:43:09.598Z,21.80
2018-10-12T10:45:37.323Z,22.60
2018-10-12T10:48:05.006Z,23.10
2018-10-12T10:50:32.737Z,23.40
2018-10-12T10:53:00.540Z,23.30
2018-10-12T10:55:28.216Z,23.30
2018-10-12T10:57:56.014Z,23.80
2018-10-12T11:00:23.922Z,23.80
2018-10-12T11:02:51.614Z,24.10
2018-10-12T11:05:19.253Z,24.70
2018-10-12T11:07:46.990Z,24.90
2018-10-12T11:10:14.697Z,25.00
2018-10-12T11:12:42.449Z,25.30
2018-10-12T11:15:10.085Z,25.90
2018-10-12T11:17:37.881Z,25.70
2018-10-12T11:20:06.300Z,25.70
2018-10-12T11:22:34.050Z,26.30
2018-10-12T11:25:01.874Z,26.60
2018-10-12T11:27:29.559Z,26.70
2018-10-12T11:29:57.329Z,26.40
2018-10-12T11:32:26.237Z,26.20
2018-10-12T11:34:53.953Z,26.50
2018-10-12T11:37:21.682Z,26.60
2018-10-12T11:39:49.384Z,26.30
2018-10-12T11:42:17.178Z,26.20
2018-10-12T11:44:44.921Z,26.40
2018-10-12T11:47:12.694Z,26.40
2018-10-12T11:49:40.396Z,26.70
2018-10-12T11:52:08.207Z,26.30
2018-10-12T11:54:35.822Z,26.20
2018-10-12T11:57:03.517Z,26.10
2018-10-12T11:59:31.245Z,26.20
2018-10-12T12:01:58.916Z,26.30
2018-10-12T12:04:26.620Z,26.60
2018-10-12T12:06:54.305Z,26.50
2018-10-12T12:09:22.084Z,26.70
2018-10-12T12:11:49.800Z,26.80
2018-10-12T12:14:17.524Z,26.80
2018-10-12T12:16:45.214Z,26.80
2018-10-12T12:19:13.038Z,26.40
2018-10-12T12:21:40.593Z,26.30
2018-10-12T12:24:08.337Z,26.30
2018-10-12T12:26:36.023Z,25.90
2018-10-12T12:29:03.774Z,25.90
2018-10-12T12:31:31.550Z,25.50
2018-10-12T12:33:59.342Z,25.30
2018-10-12T12:36:27.665Z,25.30
2018-10-12T12:38:55.414Z,25.50
2018-10-12T12:41:23.145Z,25.40
2018-10-12T12:43:50.829Z,25.40
2018-10-12T12:46:19.222Z,25.30
2018-10-12T12:48:47.427Z,25.30
2018-10-12T12:51:14.685Z,25.20
2018-10-12T12:53:43.232Z,25.00
2018-10-12T12:56:11.606Z,25.00
2018-10-12T12:58:39.233Z,24.90
2018-10-12T13:01:07.133Z,24.80
2018-10-12T13:03:34.810Z,24.80
2018-10-12T13:06:02.455Z,24.90
2018-10-12T13:08:30.197Z,24.80
2018-10-12T13:10:57.898Z,24.90
2018-10-12T13:13:25.535Z,24.90
2018-10-12T13:15:53.287Z,24.80
2018-10-12T13:18:21.047Z,24.90
2018-10-12T13:20:48.729Z,24.70
2018-10-12T13:23:16.408Z,24.60
2018-10-12T13:25:44.141Z,24.70
2018-10-12T13:28:11.821Z,24.80
2018-10-12T13:30:39.532Z,24.70
2018-10-12T13:33:07.212Z,24.70
2018-10-12T13:35:35.005Z,24.70
2018-10-12T13:38:02.701Z,24.70
2018-10-12T13:40:30.424Z,24.80
2018-10-12T13:42:58.157Z,24.80
2018-10-12T13:45:25.869Z,24.80
2018-10-12T13:47:53.548Z,24.70
2018-10-12T13:50:21.257Z,24.70
2018-10-12T13:52:48.965Z,24.80
2018-10-12T13:55:16.654Z,24.80
2018-10-12T13:57:44.310Z,24.80
2018-10-12T14:00:12.086Z,24.80
2018-10-12T14:02:39.669Z,24.90
2018-10-12T14:05:07.437Z,24.90
2018-10-12T14:07:35.141Z,24.90
2018-10-12T14:10:03.031Z,25.00
2018-10-12T14:12:30.906Z,25.00
2018-10-12T14:14:58.427Z,25.10
2018-10-12T14:17:26.170Z,25.10
2018-10-12T14:19:53.830Z,25.20
2018-10-12T14:22:21.565Z,25.20
2018-10-12T14:24:49.298Z,25.10
2018-10-12T14:27:16.947Z,25.10
2018-10-12T14:29:44.689Z,25.10
2018-10-12T14:32:12.422Z,25.10
2018-10-12T14:34:40.173Z,25.10
2018-10-12T14:37:07.905Z,25.00
2018-10-12T14:39:35.593Z,25.00
2018-10-12T14:42:03.283Z,25.00
2018-10-12T14:44:31.568Z,24.90
2018-10-12T14:46:59.303Z,24.90
2018-10-12T14:49:27.033Z,24.90
2018-10-12T14:51:54.786Z,24.80
2018-10-12T14:54:22.535Z,24.90
2018-10-12T14:56:50.288Z,24.90
2018-10-12T14:59:18.027Z,24.90
2018-10-12T15:01:45.693Z,24.90
2018-10-12T15:04:13.437Z,24.90
2018-10-12T15:06:41.181Z,24.90
2018-10-12T15:09:11.614Z,24.80
2018-10-12T15:11:39.345Z,24.80
2018-10-12T15:14:07.013Z,24.80
2018-10-12T15:16:34.821Z,24.70
2018-10-12T15:19:02.641Z,24.70
2018-10-12T15:21:30.426Z,24.70
2018-10-12T15:23:58.132Z,24.70
2018-10-12T15:26:25.897Z,24.60
2018-10-12T15:28:53.564Z,24.60
2018-10-12T15:31:21.215Z,24.50
2018-10-12T15:33:48.958Z,24.40
2018-10-12T15:36:16.697Z,24.40
2018-10-12T15:38:44.471Z,24.40
2018-10-12T15:41:12.169Z,24.40
2018-10-12T15:43:39.994Z,24.40
2018-10-12T15:46:07.757Z,24.40
2018-10-12T15:48:35.566Z,24.30
2018-10-12T15:51:03.312Z,24.20
2018-10-12T15:53:31.071Z,24.00
2018-10-12T15:55:58.797Z,23.90
2018-10-12T15:58:26.505Z,23.80
2018-10-12T16:00:54.286Z,23.70
2018-10-12T16:03:22.033Z,23.50
2018-10-12T16:05:49.785Z,23.50
2018-10-12T16:08:17.775Z,23.40
2018-10-12T16:10:45.456Z,23.30
2018-10-12T16:13:13.125Z,23.20
2018-10-12T16:15:40.809Z,23.10
2018-10-12T16:18:08.483Z,22.90
2018-10-12T16:20:36.169Z,22.80
2018-10-12T16:23:03.842Z,22.70
2018-10-12T16:26:00.877Z,22.60
2018-10-12T16:28:28.607Z,22.40
2018-10-12T16:30:56.713Z,22.20
2018-10-12T16:33:24.877Z,22.10
2018-10-12T16:35:53.561Z,22.00
2018-10-12T16:38:21.501Z,21.90
2018-10-12T16:40:49.193Z,21.90
2018-10-12T16:43:17.126Z,21.70
2018-10-12T16:45:46.154Z,21.50
2018-10-12T16:48:13.865Z,21.40
2018-10-12T16:50:41.600Z,21.30
2018-10-12T16:53:09.649Z,21.10
2018-10-12T16:55:37.497Z,20.90
2018-10-12T16:58:05.290Z,20.80
2018-10-12T17:00:32.978Z,20.70
2018-10-12T17:03:00.672Z,20.60
2018-10-12T17:05:28.404Z,20.40
2018-10-12T17:07:56.981Z,20.30
2018-10-12T17:10:35.612Z,20.30
2018-10-12T17:13:14.572Z,20.20
2018-10-12T17:15:45.951Z,20.20
2018-10-12T17:18:15.290Z,20.10
2018-10-12T17:20:43.028Z,19.90
2018-10-12T17:23:10.769Z,19.90
2018-10-12T17:25:38.434Z,19.80
2018-10-12T17:28:06.152Z,19.60
2018-10-12T17:30:33.889Z,19.50
2018-10-12T17:33:01.569Z,19.30
2018-10-12T17:35:29.278Z,19.30
2018-10-12T17:37:56.970Z,19.20
2018-10-12T17:40:24.616Z,19.00
2018-10-12T17:42:52.348Z,18.90
2018-10-12T17:45:20.336Z,18.80
2018-10-12T17:47:49.037Z,18.70
2018-10-12T17:50:26.456Z,18.80
2018-10-12T17:53:03.283Z,18.70
2018-10-12T17:55:34.797Z,18.50
2018-10-12T17:58:02.968Z,18.40
2018-10-12T18:00:30.810Z,18.30
2018-10-12T18:02:58.493Z,18.30
2018-10-12T18:05:33.850Z,18.30
2018-10-12T18:08:01.629Z,18.20
2018-10-12T18:10:29.324Z,18.10
2018-10-12T18:12:56.989Z,18.00
2018-10-12T18:15:24.689Z,17.80
2018-10-12T18:17:52.401Z,17.70
2018-10-12T18:20:25.092Z,17.50
2018-10-12T18:22:53.597Z,17.50
2018-10-12T18:25:21.469Z,17.40
2018-10-12T18:27:49.177Z,17.30
2018-10-12T18:30:16.861Z,17.30
2018-10-12T18:32:44.673Z,17.20
2018-10-12T18:35:12.371Z,17.10
2018-10-12T18:37:40.049Z,17.10
2018-10-12T18:40:07.774Z,17.00
2018-10-12T18:42:35.601Z,16.90
2018-10-12T18:45:03.349Z,16.90
2018-10-12T18:47:31.064Z,17.00
2018-10-12T18:49:59.414Z,16.90
2018-10-12T18:52:27.141Z,17.00
2018-10-12T18:54:54.781Z,16.90
2018-10-12T18:57:22.477Z,16.90
2018-10-12T18:59:50.220Z,16.80
2018-10-12T19:02:18.076Z,16.80
2018-10-12T19:04:46.868Z,16.70
2018-10-12T19:07:14.393Z,16.60
2018-10-12T19:09:42.136Z,16.40
2018-10-12T19:12:09.873Z,16.40
2018-10-12T19:14:37.545Z,16.40
2018-10-12T19:17:05.844Z,16.30
2018-10-12T19:19:35.944Z,16.20
2018-10-12T19:22:03.661Z,16.20
2018-10-12T19:24:31.344Z,16.10
2018-10-12T19:26:58.994Z,16.00
2018-10-12T19:29:26.766Z,15.90
2018-10-12T19:31:56.040Z,15.90
2018-10-12T19:34:23.665Z,15.80
2018-10-12T19:36:51.371Z,15.80
2018-10-12T19:39:19.085Z,15.80
2018-10-12T19:41:46.817Z,15.70
2018-10-12T19:44:14.498Z,15.70
2018-10-12T19:46:42.210Z,15.60
2018-10-12T19:49:09.960Z,15.50
2018-10-12T19:51:37.689Z,15.40
2018-10-12T19:54:06.403Z,15.30
2018-10-12T19:56:34.086Z,15.40
2018-10-12T19:59:01.860Z,15.40
2018-10-12T20:01:29.581Z,15.30
2018-10-12T20:03:57.305Z,15.30
2018-10-12T20:06:25.025Z,15.20
2018-10-12T20:08:52.771Z,15.10
2018-10-12T20:11:20.457Z,15.00
2018-10-12T20:13:48.115Z,15.00
2018-10-12T20:16:15.862Z,15.00
2018-10-12T20:18:43.716Z,15.10
2018-10-12T20:21:11.449Z,15.00
2018-10-12T20:23:45.638Z,15.10
2018-10-12T20:26:21.111Z,15.00
2018-10-12T20:28:48.901Z,14.90
2018-10-12T20:31:18.675Z,14.90
2018-10-12T20:33:46.452Z,14.90
2018-10-12T20:36:14.201Z,14.80
2018-10-12T20:38:41.940Z,14.80
2018-10-12T20:41:09.621Z,14.70
2018-10-12T20:43:37.257Z,14.60
2018-10-12T20:46:09.508Z,14.60
2018-10-12T20:48:37.394Z,14.60
2018-10-12T20:51:05.201Z,14.50
2018-10-12T20:53:32.871Z,14.50
2018-10-12T20:56:00.581Z,14.40
2018-10-12T20:58:28.300Z,14.30
2018-10-12T21:00:56.002Z,14.40
2018-10-12T21:03:23.698Z,14.40
2018-10-12T21:05:51.426Z,14.30
2018-10-12T21:08:19.088Z,14.30
2018-10-12T21:10:46.760Z,14.20
2018-10-12T21:13:14.447Z,14.20
2018-10-12T21:15:42.069Z,14.20
2018-10-12T21:18:09.773Z,14.20
2018-10-12T21:20:37.452Z,14.20
2018-10-12T21:23:05.173Z,14.10
2018-10-12T21:25:32.869Z,14.00
2018-10-12T21:28:00.577Z,14.00
2018-10-12T21:30:28.370Z,14.00
2018-10-12T21:33:01.930Z,14.00
2018-10-12T21:35:31.867Z,13.90
2018-10-12T21:37:59.559Z,13.90
2018-10-12T21:40:27.338Z,13.90
2018-10-12T21:42:54.928Z,13.90
2018-10-12T21:45:22.749Z,14.00
2018-10-12T21:47:50.400Z,13.90
2018-10-12T21:50:18.311Z,14.00
2018-10-12T21:52:45.976Z,14.00
2018-10-12T21:55:13.717Z,13.90
2018-10-12T21:57:41.461Z,13.90
2018-10-12T22:00:09.812Z,13.90
2018-10-12T22:02:42.910Z,13.90
2018-10-12T22:05:11.549Z,13.80
2018-10-12T22:07:44.443Z,13.70
2018-10-12T22:10:16.218Z,13.60
2018-10-12T22:12:44.078Z,13.60
2018-10-12T22:15:23.465Z,13.60
2018-10-12T22:17:52.961Z,13.50
2018-10-12T22:20:24.516Z,13.50
2018-10-12T22:22:55.040Z,13.40
2018-10-12T22:25:28.745Z,13.30
2018-10-12T22:28:02.833Z,13.20
2018-10-12T22:30:31.738Z,13.20
2018-10-12T22:32:59.517Z,13.10
2018-10-12T22:35:27.249Z,13.20
2018-10-12T22:37:54.905Z,13.10
2018-10-12T22:40:29.759Z,13.20
2018-10-12T22:42:57.599Z,13.30
2018-10-12T22:45:25.505Z,13.20
2018-10-12T22:47:56.346Z,13.10
2018-10-12T22:50:30.575Z,13.10
2018-10-12T22:52:58.381Z,13.10
2018-10-12T22:55:26.085Z,13.20
2018-10-12T22:57:59.518Z,13.00
2018-10-12T23:00:27.597Z,13.00
2018-10-12T23:02:55.253Z,12.90
2018-10-12T23:05:22.965Z,12.80
2018-10-12T23:07:57.102Z,12.80
2018-10-12T23:10:25.816Z,12.80
2018-10-12T23:12:54.352Z,12.90
2018-10-12T23:15:22.409Z,12.90
2018-10-12T23:17:50.118Z,12.80
2018-10-12T23:20:21.009Z,12.80
2018-10-12T23:22:48.945Z,12.70
2018-10-12T23:25:16.707Z,12.60
2018-10-12T23:27:44.876Z,12.60
2018-10-12T23:30:13.287Z,12.60
2018-10-12T23:32:44.383Z,12.40
2018-10-12T23:35:12.040Z,12.40
2018-10-12T23:37:39.773Z,12.50
2018-10-12T23:40:07.524Z,12.50
2018-10-12T23:42:35.272Z,12.40
2018-10-12T23:45:03.441Z,12.30
2018-10-12T23:47:37.024Z,12.30
2018-10-12T23:50:08.659Z,12.20
2018-10-12T23:52:36.393Z,12.20
2018-10-12T23:55:04.325Z,12.20
2018-10-12T23:57:32.105Z,12.10
2018-10-12T23:59:59.852Z,12.10
